CPF6 weather

Stoney Creek Airport
Stoney Creek, Ontario, Canada

Public forecast

Using degrees Celsius for public forecast. Weather courtesy of forecast.io.

Closest aviation weather report (METAR) to Stoney Creek Airport

Closest report is John C. Munro Hamilton International Airport, 9.9 nm (18.3 km) W. Retrieved 2019/10/14 17:00 UTC (10 minutes ago):

CYHM 141700Z 28014G20KT 230V310 15SM SCT030 BKN055 10/M01 A2998 RMK CU4SC3 SLP158

Closest aviation forecast (TAF) to Stoney Creek Airport

Closest forecast is John C. Munro Hamilton International Airport, 9.9 nm (18.3 km) W. Retrieved 2019/10/14 12:39 UTC (5 hours ago):

TAF CYHM 141138Z 1412/1512 27008KT P6SM FEW060 BKN080 TEMPO 1412/1413 P6SM -SHRA BKN040 OVC060 FM141300 26012G22KT P6SM FEW030 FM141500 26015G25KT P6SM SCT040 BECMG 1419/1421 26012G22KT FM150000 25005KT P6SM SCT040 PROB30 1508/1512 3/4SM BR RMK NXT FCST BY 141800Z